sensor_id;sensor_type;location;lat;lon;timestamp;temperature;humidity
72126;SHT31;59999;51.676;22.650;2024-02-04T00:00:30;6.32;79.55
72126;SHT31;59999;51.676;22.650;2024-02-04T00:03:16;6.29;79.85
72126;SHT31;59999;51.676;22.650;2024-02-04T00:05:42;6.29;79.95
72126;SHT31;59999;51.676;22.650;2024-02-04T00:08:07;6.29;80.12
72126;SHT31;59999;51.676;22.650;2024-02-04T00:10:33;6.28;79.98
72126;SHT31;59999;51.676;22.650;2024-02-04T00:12:59;6.36;79.56
72126;SHT31;59999;51.676;22.650;2024-02-04T00:15:25;6.33;79.06
72126;SHT31;59999;51.676;22.650;2024-02-04T00:17:51;6.45;78.65
72126;SHT31;59999;51.676;22.650;2024-02-04T00:20:17;6.45;78.19
72126;SHT31;59999;51.676;22.650;2024-02-04T00:22:43;6.42;78.13
72126;SHT31;59999;51.676;22.650;2024-02-04T00:25:08;6.39;78.06
72126;SHT31;59999;51.676;22.650;2024-02-04T00:27:37;6.36;78.11
72126;SHT31;59999;51.676;22.650;2024-02-04T00:30:03;6.35;78.14
72126;SHT31;59999;51.676;22.650;2024-02-04T00:32:29;6.29;78.04
72126;SHT31;59999;51.676;22.650;2024-02-04T00:34:55;6.30;78.18
72126;SHT31;59999;51.676;22.650;2024-02-04T00:37:21;6.24;78.24
72126;SHT31;59999;51.676;22.650;2024-02-04T00:39:47;6.24;78.42
72126;SHT31;59999;51.676;22.650;2024-02-04T00:42:13;6.24;78.40
72126;SHT31;59999;51.676;22.650;2024-02-04T00:44:39;6.28;78.39
72126;SHT31;59999;51.676;22.650;2024-02-04T00:47:04;6.30;78.34
72126;SHT31;59999;51.676;22.650;2024-02-04T00:49:30;6.40;78.42
72126;SHT31;59999;51.676;22.650;2024-02-04T00:51:56;6.48;78.45
72126;SHT31;59999;51.676;22.650;2024-02-04T00:54:22;6.46;78.62
72126;SHT31;59999;51.676;22.650;2024-02-04T00:56:47;6.42;78.62
72126;SHT31;59999;51.676;22.650;2024-02-04T00:59:14;6.40;79.01
72126;SHT31;59999;51.676;22.650;2024-02-04T01:01:39;6.38;79.26
72126;SHT31;59999;51.676;22.650;2024-02-04T01:04:05;6.42;78.83
72126;SHT31;59999;51.676;22.650;2024-02-04T01:06:31;6.38;78.24
72126;SHT31;59999;51.676;22.650;2024-02-04T01:08:57;6.42;78.15
72126;SHT31;59999;51.676;22.650;2024-02-04T01:11:23;6.53;77.01
72126;SHT31;59999;51.676;22.650;2024-02-04T01:13:49;6.60;76.55
72126;SHT31;59999;51.676;22.650;2024-02-04T01:16:14;6.54;76.22
72126;SHT31;59999;51.676;22.650;2024-02-04T01:18:40;6.56;75.79
72126;SHT31;59999;51.676;22.650;2024-02-04T01:21:06;6.54;75.29
72126;SHT31;59999;51.676;22.650;2024-02-04T01:23:34;6.52;75.14
72126;SHT31;59999;51.676;22.650;2024-02-04T01:26:00;6.50;75.19
72126;SHT31;59999;51.676;22.650;2024-02-04T01:28:26;6.43;75.05
72126;SHT31;59999;51.676;22.650;2024-02-04T01:30:51;6.39;75.15
72126;SHT31;59999;51.676;22.650;2024-02-04T01:33:17;6.32;75.13
72126;SHT31;59999;51.676;22.650;2024-02-04T01:35:43;6.26;75.36
72126;SHT31;59999;51.676;22.650;2024-02-04T01:38:09;6.24;75.17
72126;SHT31;59999;51.676;22.650;2024-02-04T01:40:34;6.19;75.20
72126;SHT31;59999;51.676;22.650;2024-02-04T01:43:01;6.18;75.37
72126;SHT31;59999;51.676;22.650;2024-02-04T01:45:27;6.12;75.34
72126;SHT31;59999;51.676;22.650;2024-02-04T01:47:53;6.14;75.29
72126;SHT31;59999;51.676;22.650;2024-02-04T01:50:19;6.08;75.28
72126;SHT31;59999;51.676;22.650;2024-02-04T01:52:45;6.05;75.49
72126;SHT31;59999;51.676;22.650;2024-02-04T01:55:11;6.04;75.79
72126;SHT31;59999;51.676;22.650;2024-02-04T01:57:37;5.94;76.03
72126;SHT31;59999;51.676;22.650;2024-02-04T02:00:03;5.90;76.21
72126;SHT31;59999;51.676;22.650;2024-02-04T02:02:30;5.90;76.21
72126;SHT31;59999;51.676;22.650;2024-02-04T02:04:57;5.84;76.65
72126;SHT31;59999;51.676;22.650;2024-02-04T02:07:23;5.84;76.77
72126;SHT31;59999;51.676;22.650;2024-02-04T02:09:53;5.81;77.11
72126;SHT31;59999;51.676;22.650;2024-02-04T02:12:39;5.75;77.30
72126;SHT31;59999;51.676;22.650;2024-02-04T02:15:15;5.70;77.76
72126;SHT31;59999;51.676;22.650;2024-02-04T02:17:58;5.63;77.87
72126;SHT31;59999;51.676;22.650;2024-02-04T02:23:22;5.56;78.29
72126;SHT31;59999;51.676;22.650;2024-02-04T02:25:49;5.56;78.67
72126;SHT31;59999;51.676;22.650;2024-02-04T02:28:15;5.53;78.65
72126;SHT31;59999;51.676;22.650;2024-02-04T02:30:41;5.57;78.73
72126;SHT31;59999;51.676;22.650;2024-02-04T02:33:07;5.59;78.66
72126;SHT31;59999;51.676;22.650;2024-02-04T02:35:35;5.69;78.52
72126;SHT31;59999;51.676;22.650;2024-02-04T02:41:06;5.87;78.02
72126;SHT31;59999;51.676;22.650;2024-02-04T02:43:34;5.90;78.00
72126;SHT31;59999;51.676;22.650;2024-02-04T02:46:00;5.93;77.79
72126;SHT31;59999;51.676;22.650;2024-02-04T02:48:27;5.94;77.94
72126;SHT31;59999;51.676;22.650;2024-02-04T02:50:53;5.88;77.96
72126;SHT31;59999;51.676;22.650;2024-02-04T02:53:19;5.78;78.27
72126;SHT31;59999;51.676;22.650;2024-02-04T02:55:46;5.78;78.22
72126;SHT31;59999;51.676;22.650;2024-02-04T02:58:12;5.75;78.51
72126;SHT31;59999;51.676;22.650;2024-02-04T03:00:38;5.66;78.89
72126;SHT31;59999;51.676;22.650;2024-02-04T03:03:04;5.64;78.96
72126;SHT31;59999;51.676;22.650;2024-02-04T03:05:31;5.61;79.04
72126;SHT31;59999;51.676;22.650;2024-02-04T03:07:57;5.60;79.21
72126;SHT31;59999;51.676;22.650;2024-02-04T03:10:23;5.60;79.36
72126;SHT31;59999;51.676;22.650;2024-02-04T03:12:48;5.67;79.31
72126;SHT31;59999;51.676;22.650;2024-02-04T03:15:14;5.75;79.17
72126;SHT31;59999;51.676;22.650;2024-02-04T03:17:42;5.78;79.09
72126;SHT31;59999;51.676;22.650;2024-02-04T03:20:09;5.84;78.67
72126;SHT31;59999;51.676;22.650;2024-02-04T03:22:35;5.87;78.52
72126;SHT31;59999;51.676;22.650;2024-02-04T03:25:01;5.91;78.35
72126;SHT31;59999;51.676;22.650;2024-02-04T03:27:26;5.95;78.32
72126;SHT31;59999;51.676;22.650;2024-02-04T03:29:52;5.98;78.09
72126;SHT31;59999;51.676;22.650;2024-02-04T03:32:18;5.97;78.18
72126;SHT31;59999;51.676;22.650;2024-02-04T03:34:44;6.02;77.87
72126;SHT31;59999;51.676;22.650;2024-02-04T03:37:10;6.05;77.75
72126;SHT31;59999;51.676;22.650;2024-02-04T03:39:35;6.02;77.89
72126;SHT31;59999;51.676;22.650;2024-02-04T03:42:02;6.02;77.87
72126;SHT31;59999;51.676;22.650;2024-02-04T03:44:28;6.01;77.89
72126;SHT31;59999;51.676;22.650;2024-02-04T03:46:54;5.99;77.98
72126;SHT31;59999;51.676;22.650;2024-02-04T03:49:20;5.98;77.97
72126;SHT31;59999;51.676;22.650;2024-02-04T03:51:46;5.95;77.97
72126;SHT31;59999;51.676;22.650;2024-02-04T03:54:12;5.98;77.90
72126;SHT31;59999;51.676;22.650;2024-02-04T03:56:37;5.94;77.91
72126;SHT31;59999;51.676;22.650;2024-02-04T03:59:03;5.88;78.01
72126;SHT31;59999;51.676;22.650;2024-02-04T04:01:29;5.87;78.20
72126;SHT31;59999;51.676;22.650;2024-02-04T04:03:55;5.78;78.35
72126;SHT31;59999;51.676;22.650;2024-02-04T04:06:20;5.78;78.72
72126;SHT31;59999;51.676;22.650;2024-02-04T04:08:46;5.75;79.02
72126;SHT31;59999;51.676;22.650;2024-02-04T04:11:12;5.71;79.14
72126;SHT31;59999;51.676;22.650;2024-02-04T04:13:38;5.70;79.15
72126;SHT31;59999;51.676;22.650;2024-02-04T04:16:04;5.70;79.46
72126;SHT31;59999;51.676;22.650;2024-02-04T04:18:30;5.69;79.67
72126;SHT31;59999;51.676;22.650;2024-02-04T04:20:56;5.70;79.69
72126;SHT31;59999;51.676;22.650;2024-02-04T04:23:22;5.69;79.79
72126;SHT31;59999;51.676;22.650;2024-02-04T04:25:48;5.70;79.75
72126;SHT31;59999;51.676;22.650;2024-02-04T04:28:13;5.71;79.65
72126;SHT31;59999;51.676;22.650;2024-02-04T04:30:39;5.73;79.48
72126;SHT31;59999;51.676;22.650;2024-02-04T04:33:05;5.75;79.31
72126;SHT31;59999;51.676;22.650;2024-02-04T04:35:31;5.77;79.21
72126;SHT31;59999;51.676;22.650;2024-02-04T04:37:58;5.80;79.07
72126;SHT31;59999;51.676;22.650;2024-02-04T04:40:23;5.83;78.85
72126;SHT31;59999;51.676;22.650;2024-02-04T04:42:49;5.86;78.77
72126;SHT31;59999;51.676;22.650;2024-02-04T04:45:15;5.87;78.88
72126;SHT31;59999;51.676;22.650;2024-02-04T04:47:41;5.88;79.03
72126;SHT31;59999;51.676;22.650;2024-02-04T04:50:07;5.88;79.13
72126;SHT31;59999;51.676;22.650;2024-02-04T04:52:33;5.90;79.37
72126;SHT31;59999;51.676;22.650;2024-02-04T04:54:58;5.91;79.18
72126;SHT31;59999;51.676;22.650;2024-02-04T04:57:24;5.93;79.17
72126;SHT31;59999;51.676;22.650;2024-02-04T04:59:50;5.91;79.34
72126;SHT31;59999;51.676;22.650;2024-02-04T05:02:16;5.95;79.33
72126;SHT31;59999;51.676;22.650;2024-02-04T05:04:43;5.95;79.28
72126;SHT31;59999;51.676;22.650;2024-02-04T05:07:13;5.98;78.95
72126;SHT31;59999;51.676;22.650;2024-02-04T05:09:39;5.97;79.00
72126;SHT31;59999;51.676;22.650;2024-02-04T05:12:08;5.95;78.96
72126;SHT31;59999;51.676;22.650;2024-02-04T05:14:33;5.93;79.10
72126;SHT31;59999;51.676;22.650;2024-02-04T05:16:59;5.97;79.04
72126;SHT31;59999;51.676;22.650;2024-02-04T05:19:25;5.98;78.84
72126;SHT31;59999;51.676;22.650;2024-02-04T05:21:51;5.98;78.58
72126;SHT31;59999;51.676;22.650;2024-02-04T05:24:17;5.99;78.29
72126;SHT31;59999;51.676;22.650;2024-02-04T05:26:42;6.02;77.65
72126;SHT31;59999;51.676;22.650;2024-02-04T05:29:08;5.80;76.50
72126;SHT31;59999;51.676;22.650;2024-02-04T05:31:40;5.36;77.73
72126;SHT31;59999;51.676;22.650;2024-02-04T05:34:06;4.78;79.46
72126;SHT31;59999;51.676;22.650;2024-02-04T05:36:32;4.37;81.36
72126;SHT31;59999;51.676;22.650;2024-02-04T05:39:08;3.91;82.15
72126;SHT31;59999;51.676;22.650;2024-02-04T05:41:35;3.64;83.33
72126;SHT31;59999;51.676;22.650;2024-02-04T05:44:01;3.44;84.82
72126;SHT31;59999;51.676;22.650;2024-02-04T05:46:27;3.33;85.39
72126;SHT31;59999;51.676;22.650;2024-02-04T05:48:53;3.24;86.26
72126;SHT31;59999;51.676;22.650;2024-02-04T05:51:21;3.22;86.68
72126;SHT31;59999;51.676;22.650;2024-02-04T05:53:47;3.24;87.18
72126;SHT31;59999;51.676;22.650;2024-02-04T05:56:13;3.24;87.59
72126;SHT31;59999;51.676;22.650;2024-02-04T05:58:39;3.27;87.70
72126;SHT31;59999;51.676;22.650;2024-02-04T06:01:05;3.34;87.78
72126;SHT31;59999;51.676;22.650;2024-02-04T06:03:31;3.37;87.99
72126;SHT31;59999;51.676;22.650;2024-02-04T06:05:57;3.36;87.91
72126;SHT31;59999;51.676;22.650;2024-02-04T06:08:22;3.34;88.27
72126;SHT31;59999;51.676;22.650;2024-02-04T06:10:48;3.31;88.38
72126;SHT31;59999;51.676;22.650;2024-02-04T06:13:14;3.33;88.80
72126;SHT31;59999;51.676;22.650;2024-02-04T06:15:40;3.36;89.01
72126;SHT31;59999;51.676;22.650;2024-02-04T06:18:05;3.37;89.17
72126;SHT31;59999;51.676;22.650;2024-02-04T06:20:31;3.41;89.21
72126;SHT31;59999;51.676;22.650;2024-02-04T06:22:57;3.44;89.28
72126;SHT31;59999;51.676;22.650;2024-02-04T06:25:23;3.48;89.40
72126;SHT31;59999;51.676;22.650;2024-02-04T06:27:49;3.48;89.33
72126;SHT31;59999;51.676;22.650;2024-02-04T06:30:15;3.55;89.22
72126;SHT31;59999;51.676;22.650;2024-02-04T06:32:42;3.57;89.23
72126;SHT31;59999;51.676;22.650;2024-02-04T06:35:08;3.64;89.32
72126;SHT31;59999;51.676;22.650;2024-02-04T06:37:33;3.77;88.85
72126;SHT31;59999;51.676;22.650;2024-02-04T06:39:59;3.96;86.94
72126;SHT31;59999;51.676;22.650;2024-02-04T06:42:25;4.15;85.22
72126;SHT31;59999;51.676;22.650;2024-02-04T06:44:51;4.30;83.04
72126;SHT31;59999;51.676;22.650;2024-02-04T06:47:16;4.43;82.60
72126;SHT31;59999;51.676;22.650;2024-02-04T06:49:45;4.47;82.26
72126;SHT31;59999;51.676;22.650;2024-02-04T06:52:11;4.54;81.46
72126;SHT31;59999;51.676;22.650;2024-02-04T06:54:37;4.60;81.19
72126;SHT31;59999;51.676;22.650;2024-02-04T06:57:03;4.61;81.59
72126;SHT31;59999;51.676;22.650;2024-02-04T06:59:29;4.50;82.88
72126;SHT31;59999;51.676;22.650;2024-02-04T07:01:54;4.39;83.67
72126;SHT31;59999;51.676;22.650;2024-02-04T07:04:20;4.22;84.12
72126;SHT31;59999;51.676;22.650;2024-02-04T07:06:50;4.16;83.97
72126;SHT31;59999;51.676;22.650;2024-02-04T07:09:17;4.10;84.30
72126;SHT31;59999;51.676;22.650;2024-02-04T07:11:43;4.02;84.30
72126;SHT31;59999;51.676;22.650;2024-02-04T07:14:08;4.01;84.06
72126;SHT31;59999;51.676;22.650;2024-02-04T07:16:34;3.99;83.88
72126;SHT31;59999;51.676;22.650;2024-02-04T07:19:00;4.03;83.98
72126;SHT31;59999;51.676;22.650;2024-02-04T07:21:26;4.06;83.43
72126;SHT31;59999;51.676;22.650;2024-02-04T07:23:52;4.16;83.52
72126;SHT31;59999;51.676;22.650;2024-02-04T07:26:17;4.23;83.74
72126;SHT31;59999;51.676;22.650;2024-02-04T07:28:43;4.34;83.86
72126;SHT31;59999;51.676;22.650;2024-02-04T07:31:10;4.44;82.92
72126;SHT31;59999;51.676;22.650;2024-02-04T07:33:37;4.57;82.19
72126;SHT31;59999;51.676;22.650;2024-02-04T07:36:02;4.70;81.57
72126;SHT31;59999;51.676;22.650;2024-02-04T07:38:28;4.75;81.49
72126;SHT31;59999;51.676;22.650;2024-02-04T07:40:54;4.84;81.16
72126;SHT31;59999;51.676;22.650;2024-02-04T07:43:25;4.88;80.87
72126;SHT31;59999;51.676;22.650;2024-02-04T07:45:50;4.96;80.56
72126;SHT31;59999;51.676;22.650;2024-02-04T07:48:16;5.02;79.67
72126;SHT31;59999;51.676;22.650;2024-02-04T07:50:43;5.04;79.42
72126;SHT31;59999;51.676;22.650;2024-02-04T07:53:09;5.05;79.71
72126;SHT31;59999;51.676;22.650;2024-02-04T07:55:34;5.08;79.26
72126;SHT31;59999;51.676;22.650;2024-02-04T07:58:00;5.11;79.15
72126;SHT31;59999;51.676;22.650;2024-02-04T08:00:26;5.11;79.13
72126;SHT31;59999;51.676;22.650;2024-02-04T08:02:52;5.05;78.61
72126;SHT31;59999;51.676;22.650;2024-02-04T08:05:18;5.09;79.33
72126;SHT31;59999;51.676;22.650;2024-02-04T08:07:44;5.11;79.37
72126;SHT31;59999;51.676;22.650;2024-02-04T08:10:10;5.16;78.94
72126;SHT31;59999;51.676;22.650;2024-02-04T08:12:36;5.16;79.32
72126;SHT31;59999;51.676;22.650;2024-02-04T08:15:02;5.28;78.32
72126;SHT31;59999;51.676;22.650;2024-02-04T08:17:28;5.40;78.04
72126;SHT31;59999;51.676;22.650;2024-02-04T08:19:56;5.51;77.82
72126;SHT31;59999;51.676;22.650;2024-02-04T08:22:22;5.53;77.32
72126;SHT31;59999;51.676;22.650;2024-02-04T08:24:48;5.54;77.04
72126;SHT31;59999;51.676;22.650;2024-02-04T08:27:14;5.50;76.22
72126;SHT31;59999;51.676;22.650;2024-02-04T08:29:43;5.49;76.47
72126;SHT31;59999;51.676;22.650;2024-02-04T08:32:09;5.53;76.49
72126;SHT31;59999;51.676;22.650;2024-02-04T08:34:35;5.54;76.80
72126;SHT31;59999;51.676;22.650;2024-02-04T08:37:01;5.49;76.09
72126;SHT31;59999;51.676;22.650;2024-02-04T08:39:27;5.54;76.16
72126;SHT31;59999;51.676;22.650;2024-02-04T08:41:53;5.56;76.02
72126;SHT31;59999;51.676;22.650;2024-02-04T08:44:19;5.59;75.63
72126;SHT31;59999;51.676;22.650;2024-02-04T08:46:44;5.63;75.74
72126;SHT31;59999;51.676;22.650;2024-02-04T08:49:10;5.67;75.90
72126;SHT31;59999;51.676;22.650;2024-02-04T08:51:36;5.73;75.27
72126;SHT31;59999;51.676;22.650;2024-02-04T08:54:02;5.80;74.71
72126;SHT31;59999;51.676;22.650;2024-02-04T08:56:28;5.86;75.19
72126;SHT31;59999;51.676;22.650;2024-02-04T08:58:54;5.95;75.53
72126;SHT31;59999;51.676;22.650;2024-02-04T09:01:20;5.98;74.80
72126;SHT31;59999;51.676;22.650;2024-02-04T09:03:46;6.09;74.63
72126;SHT31;59999;51.676;22.650;2024-02-04T09:06:11;6.18;74.21
72126;SHT31;59999;51.676;22.650;2024-02-04T09:08:37;6.19;73.72
72126;SHT31;59999;51.676;22.650;2024-02-04T09:11:03;6.21;73.56
72126;SHT31;59999;51.676;22.650;2024-02-04T09:13:29;6.24;73.63
72126;SHT31;59999;51.676;22.650;2024-02-04T09:15:55;6.29;73.24
72126;SHT31;59999;51.676;22.650;2024-02-04T09:18:20;6.32;73.47
72126;SHT31;59999;51.676;22.650;2024-02-04T09:20:47;6.29;72.79
72126;SHT31;59999;51.676;22.650;2024-02-04T09:23:13;6.26;73.04
72126;SHT31;59999;51.676;22.650;2024-02-04T09:25:39;6.21;72.69
72126;SHT31;59999;51.676;22.650;2024-02-04T09:28:04;6.21;72.08
72126;SHT31;59999;51.676;22.650;2024-02-04T09:30:30;6.14;72.02
72126;SHT31;59999;51.676;22.650;2024-02-04T09:32:56;6.18;72.50
72126;SHT31;59999;51.676;22.650;2024-02-04T09:35:23;6.19;72.31
72126;SHT31;59999;51.676;22.650;2024-02-04T09:37:48;6.18;72.08
72126;SHT31;59999;51.676;22.650;2024-02-04T09:40:14;6.22;72.47
72126;SHT31;59999;51.676;22.650;2024-02-04T09:42:40;6.19;72.00
72126;SHT31;59999;51.676;22.650;2024-02-04T09:45:06;6.15;72.39
72126;SHT31;59999;51.676;22.650;2024-02-04T09:47:34;6.11;72.34
72126;SHT31;59999;51.676;22.650;2024-02-04T09:50:00;6.09;72.42
72126;SHT31;59999;51.676;22.650;2024-02-04T09:52:29;6.12;72.65
72126;SHT31;59999;51.676;22.650;2024-02-04T09:55:02;6.17;72.91
72126;SHT31;59999;51.676;22.650;2024-02-04T09:57:32;6.21;72.97
72126;SHT31;59999;51.676;22.650;2024-02-04T10:00:02;6.21;72.22
72126;SHT31;59999;51.676;22.650;2024-02-04T10:02:31;6.22;71.97
72126;SHT31;59999;51.676;22.650;2024-02-04T10:04:57;6.15;72.22
72126;SHT31;59999;51.676;22.650;2024-02-04T10:07:23;6.15;72.82
72126;SHT31;59999;51.676;22.650;2024-02-04T10:09:50;6.17;72.79
72126;SHT31;59999;51.676;22.650;2024-02-04T10:12:16;6.25;72.62
72126;SHT31;59999;51.676;22.650;2024-02-04T10:14:42;6.25;72.51
72126;SHT31;59999;51.676;22.650;2024-02-04T10:17:08;6.24;72.07
72126;SHT31;59999;51.676;22.650;2024-02-04T10:19:34;6.18;72.55
72126;SHT31;59999;51.676;22.650;2024-02-04T10:22:01;6.19;72.12
72126;SHT31;59999;51.676;22.650;2024-02-04T10:24:28;6.19;71.87
72126;SHT31;59999;51.676;22.650;2024-02-04T10:26:55;6.12;71.46
72126;SHT31;59999;51.676;22.650;2024-02-04T10:29:23;6.15;71.84
72126;SHT31;59999;51.676;22.650;2024-02-04T10:31:48;6.22;71.96
72126;SHT31;59999;51.676;22.650;2024-02-04T10:34:14;6.22;71.54
72126;SHT31;59999;51.676;22.650;2024-02-04T10:36:41;6.24;71.16
72126;SHT31;59999;51.676;22.650;2024-02-04T10:39:07;6.22;70.75
72126;SHT31;59999;51.676;22.650;2024-02-04T10:41:33;6.30;71.26
72126;SHT31;59999;51.676;22.650;2024-02-04T10:44:02;6.30;70.81
72126;SHT31;59999;51.676;22.650;2024-02-04T10:46:30;6.30;70.98
72126;SHT31;59999;51.676;22.650;2024-02-04T10:48:59;6.28;70.51
72126;SHT31;59999;51.676;22.650;2024-02-04T10:51:26;6.25;71.38
72126;SHT31;59999;51.676;22.650;2024-02-04T10:53:54;6.26;71.13
72126;SHT31;59999;51.676;22.650;2024-02-04T10:56:43;6.24;70.32
72126;SHT31;59999;51.676;22.650;2024-02-04T10:59:18;6.26;70.69
72126;SHT31;59999;51.676;22.650;2024-02-04T11:01:45;6.19;69.52
72126;SHT31;59999;51.676;22.650;2024-02-04T11:04:14;6.25;70.41
72126;SHT31;59999;51.676;22.650;2024-02-04T11:06:44;6.26;70.04
72126;SHT31;59999;51.676;22.650;2024-02-04T11:09:11;6.28;70.24
72126;SHT31;59999;51.676;22.650;2024-02-04T11:11:38;6.29;69.48
72126;SHT31;59999;51.676;22.650;2024-02-04T11:14:09;6.29;68.65
72126;SHT31;59999;51.676;22.650;2024-02-04T11:16:51;6.42;68.94
72126;SHT31;59999;51.676;22.650;2024-02-04T11:27:41;6.42;67.42
72126;SHT31;59999;51.676;22.650;2024-02-04T11:30:07;6.42;68.08
72126;SHT31;59999;51.676;22.650;2024-02-04T11:32:35;6.39;68.17
72126;SHT31;59999;51.676;22.650;2024-02-04T11:35:02;6.33;68.28
72126;SHT31;59999;51.676;22.650;2024-02-04T11:37:28;6.32;68.48
72126;SHT31;59999;51.676;22.650;2024-02-04T11:39:56;6.35;68.33
72126;SHT31;59999;51.676;22.650;2024-02-04T11:42:23;6.32;68.17
72126;SHT31;59999;51.676;22.650;2024-02-04T11:44:49;6.32;68.13
72126;SHT31;59999;51.676;22.650;2024-02-04T11:47:25;6.35;68.14
72126;SHT31;59999;51.676;22.650;2024-02-04T11:49:58;6.30;68.32
72126;SHT31;59999;51.676;22.650;2024-02-04T11:52:27;6.28;68.13
72126;SHT31;59999;51.676;22.650;2024-02-04T11:54:53;6.21;68.00
72126;SHT31;59999;51.676;22.650;2024-02-04T11:57:19;6.25;68.71
72126;SHT31;59999;51.676;22.650;2024-02-04T11:59:46;6.22;68.91
72126;SHT31;59999;51.676;22.650;2024-02-04T12:02:12;6.25;68.83
72126;SHT31;59999;51.676;22.650;2024-02-04T12:04:39;6.22;68.93
72126;SHT31;59999;51.676;22.650;2024-02-04T12:07:05;6.22;68.68
72126;SHT31;59999;51.676;22.650;2024-02-04T12:09:32;6.25;68.94
72126;SHT31;59999;51.676;22.650;2024-02-04T12:11:57;6.24;68.85
72126;SHT31;59999;51.676;22.650;2024-02-04T12:14:26;6.21;68.85
72126;SHT31;59999;51.676;22.650;2024-02-04T12:16:52;6.21;69.30
72126;SHT31;59999;51.676;22.650;2024-02-04T12:19:18;6.22;69.33
72126;SHT31;59999;51.676;22.650;2024-02-04T12:22:05;6.25;68.76
72126;SHT31;59999;51.676;22.650;2024-02-04T12:25:11;6.29;68.46
72126;SHT31;59999;51.676;22.650;2024-02-04T12:27:37;6.32;68.89
72126;SHT31;59999;51.676;22.650;2024-02-04T12:30:04;6.33;68.80
72126;SHT31;59999;51.676;22.650;2024-02-04T12:32:31;6.35;68.82
72126;SHT31;59999;51.676;22.650;2024-02-04T12:34:56;6.40;69.18
72126;SHT31;59999;51.676;22.650;2024-02-04T12:37:22;6.38;69.48
72126;SHT31;59999;51.676;22.650;2024-02-04T12:39:48;6.28;70.18
72126;SHT31;59999;51.676;22.650;2024-02-04T12:42:17;6.08;71.96
72126;SHT31;59999;51.676;22.650;2024-02-04T12:44:51;5.88;74.07
72126;SHT31;59999;51.676;22.650;2024-02-04T12:47:21;5.69;76.00
72126;SHT31;59999;51.676;22.650;2024-02-04T12:49:46;5.51;76.76
72126;SHT31;59999;51.676;22.650;2024-02-04T12:52:12;5.38;77.83
72126;SHT31;59999;51.676;22.650;2024-02-04T12:54:43;5.30;78.59
72126;SHT31;59999;51.676;22.650;2024-02-04T12:57:09;5.25;79.19
72126;SHT31;59999;51.676;22.650;2024-02-04T12:59:38;5.21;79.78
72126;SHT31;59999;51.676;22.650;2024-02-04T13:02:07;5.22;79.62
72126;SHT31;59999;51.676;22.650;2024-02-04T13:04:38;5.22;79.40
72126;SHT31;59999;51.676;22.650;2024-02-04T13:07:11;5.21;79.38
72126;SHT31;59999;51.676;22.650;2024-02-04T13:09:38;5.15;79.67
72126;SHT31;59999;51.676;22.650;2024-02-04T13:12:05;5.16;79.53
72126;SHT31;59999;51.676;22.650;2024-02-04T13:14:33;5.12;80.00
72126;SHT31;59999;51.676;22.650;2024-02-04T13:16:59;5.13;80.66
72126;SHT31;59999;51.676;22.650;2024-02-04T13:19:24;5.15;80.71
72126;SHT31;59999;51.676;22.650;2024-02-04T13:21:50;5.16;80.61
72126;SHT31;59999;51.676;22.650;2024-02-04T13:24:16;5.19;80.69
72126;SHT31;59999;51.676;22.650;2024-02-04T13:26:42;5.18;80.42
72126;SHT31;59999;51.676;22.650;2024-02-04T13:29:07;5.18;80.71
72126;SHT31;59999;51.676;22.650;2024-02-04T13:31:33;5.18;80.58
72126;SHT31;59999;51.676;22.650;2024-02-04T13:33:59;5.21;80.82
72126;SHT31;59999;51.676;22.650;2024-02-04T13:36:30;5.19;80.71
72126;SHT31;59999;51.676;22.650;2024-02-04T13:38:56;5.18;80.91
72126;SHT31;59999;51.676;22.650;2024-02-04T13:41:22;5.12;81.11
72126;SHT31;59999;51.676;22.650;2024-02-04T13:43:47;5.15;81.23
72126;SHT31;59999;51.676;22.650;2024-02-04T13:46:13;5.09;81.52
72126;SHT31;59999;51.676;22.650;2024-02-04T13:48:39;5.09;81.78
72126;SHT31;59999;51.676;22.650;2024-02-04T13:51:05;5.09;82.02
72126;SHT31;59999;51.676;22.650;2024-02-04T13:53:30;5.07;82.27
72126;SHT31;59999;51.676;22.650;2024-02-04T13:56:00;5.07;82.53
72126;SHT31;59999;51.676;22.650;2024-02-04T13:58:26;5.09;82.56
72126;SHT31;59999;51.676;22.650;2024-02-04T14:00:52;5.08;82.84
72126;SHT31;59999;51.676;22.650;2024-02-04T14:03:18;5.08;83.17
72126;SHT31;59999;51.676;22.650;2024-02-04T14:05:45;5.09;83.19
72126;SHT31;59999;51.676;22.650;2024-02-04T14:08:10;5.09;83.24
72126;SHT31;59999;51.676;22.650;2024-02-04T14:10:36;5.05;83.48
72126;SHT31;59999;51.676;22.650;2024-02-04T14:13:02;5.11;83.34
72126;SHT31;59999;51.676;22.650;2024-02-04T14:15:30;5.05;83.84
72126;SHT31;59999;51.676;22.650;2024-02-04T14:17:56;5.07;83.92
72126;SHT31;59999;51.676;22.650;2024-02-04T14:20:23;5.05;83.67
72126;SHT31;59999;51.676;22.650;2024-02-04T14:22:49;5.09;83.72
72126;SHT31;59999;51.676;22.650;2024-02-04T14:25:16;5.11;83.64
72126;SHT31;59999;51.676;22.650;2024-02-04T14:27:42;5.11;83.56
72126;SHT31;59999;51.676;22.650;2024-02-04T14:30:09;5.18;83.22
72126;SHT31;59999;51.676;22.650;2024-02-04T14:32:34;5.12;83.20
72126;SHT31;59999;51.676;22.650;2024-02-04T14:35:00;5.18;83.11
72126;SHT31;59999;51.676;22.650;2024-02-04T14:37:27;5.15;83.31
72126;SHT31;59999;51.676;22.650;2024-02-04T14:39:53;5.11;83.64
72126;SHT31;59999;51.676;22.650;2024-02-04T14:42:19;5.04;83.93
72126;SHT31;59999;51.676;22.650;2024-02-04T14:44:45;5.05;83.81
72126;SHT31;59999;51.676;22.650;2024-02-04T14:47:10;5.05;84.19
72126;SHT31;59999;51.676;22.650;2024-02-04T14:49:36;5.01;84.43
72126;SHT31;59999;51.676;22.650;2024-02-04T14:52:03;5.05;84.21
72126;SHT31;59999;51.676;22.650;2024-02-04T14:54:29;5.02;83.93
72126;SHT31;59999;51.676;22.650;2024-02-04T14:56:55;5.05;83.82
72126;SHT31;59999;51.676;22.650;2024-02-04T14:59:21;5.08;83.81
72126;SHT31;59999;51.676;22.650;2024-02-04T15:01:47;5.09;84.01
72126;SHT31;59999;51.676;22.650;2024-02-04T15:04:14;5.05;83.84
72126;SHT31;59999;51.676;22.650;2024-02-04T15:06:41;5.05;84.04
72126;SHT31;59999;51.676;22.650;2024-02-04T15:09:07;5.05;84.05
72126;SHT31;59999;51.676;22.650;2024-02-04T15:11:32;5.04;84.10
72126;SHT31;59999;51.676;22.650;2024-02-04T15:14:00;5.04;83.90
72126;SHT31;59999;51.676;22.650;2024-02-04T15:16:25;5.04;84.07
72126;SHT31;59999;51.676;22.650;2024-02-04T15:18:52;5.07;83.88
72126;SHT31;59999;51.676;22.650;2024-02-04T15:21:18;5.08;83.73
72126;SHT31;59999;51.676;22.650;2024-02-04T15:23:44;5.07;84.03
72126;SHT31;59999;51.676;22.650;2024-02-04T15:26:10;5.11;83.80
72126;SHT31;59999;51.676;22.650;2024-02-04T15:28:37;5.05;83.92
72126;SHT31;59999;51.676;22.650;2024-02-04T15:31:04;5.05;83.94
72126;SHT31;59999;51.676;22.650;2024-02-04T15:33:30;5.08;83.83
72126;SHT31;59999;51.676;22.650;2024-02-04T15:35:55;5.07;83.56
72126;SHT31;59999;51.676;22.650;2024-02-04T15:38:22;5.07;83.57
72126;SHT31;59999;51.676;22.650;2024-02-04T15:40:47;5.09;83.35